createdAt,value
2022-11-17T01:00:37.336Z,1327.90
2022-11-17T01:02:23.488Z,1059.08
2022-11-17T01:04:09.661Z,1047.37
2022-11-17T01:05:55.836Z,1129.15
2022-11-17T01:07:42.676Z,1268.32
2022-11-17T01:09:28.849Z,1790.53
2022-11-17T01:11:15.081Z,2510.72
2022-11-17T01:13:01.349Z,2715.38
2022-11-17T01:14:47.622Z,2796.55
2022-11-17T01:16:33.946Z,2786.68
2022-11-17T01:18:20.169Z,2468.80
2022-11-17T01:20:06.746Z,3223.30
2022-11-17T01:21:53.252Z,3925.70
2022-11-17T01:23:39.520Z,4337.42
2022-11-17T01:25:25.764Z,4415.68
2022-11-17T01:27:12.058Z,4056.23
2022-11-17T01:28:58.420Z,3914.85
2022-11-17T01:30:44.700Z,4889.30
2022-11-17T01:32:31.003Z,5240.18
2022-11-17T01:34:17.139Z,5193.00
2022-11-17T01:36:03.583Z,6821.12
2022-11-17T01:37:49.885Z,4725.03
2022-11-17T01:39:36.098Z,6329.30
2022-11-17T01:41:22.387Z,5698.83
2022-11-17T01:43:09.319Z,4066.47
2022-11-17T01:44:55.589Z,4035.28
2022-11-17T01:46:41.859Z,3513.43
2022-11-17T01:48:28.136Z,4715.72
2022-11-17T01:50:14.445Z,5446.25
2022-11-17T01:52:00.690Z,4179.30
2022-11-17T01:53:46.875Z,3620.17
2022-11-17T01:55:33.158Z,4298.70
2022-11-17T01:57:19.623Z,5078.33
2022-11-17T01:59:06.192Z,4114.02
2022-11-17T02:00:52.436Z,3783.18
2022-11-17T02:02:38.702Z,4231.93
2022-11-17T02:04:25.319Z,2877.78
2022-11-17T02:06:11.472Z,3524.85
2022-11-17T02:07:58.052Z,4293.48
2022-11-17T02:09:44.289Z,3774.68
2022-11-17T02:11:30.767Z,5227.40
2022-11-17T14:43:34.912Z,7.92
2022-11-17T14:45:21.774Z,7.82
2022-11-17T14:47:08.130Z,7.82
